sensor_id;sensor_type;location;lat;lon;timestamp;pressure;altitude;pressure_sealevel;temperature;humidity
58373;BME280;44177;43.356;27.672;2023-04-01T00:00:23;97367.91;;;7.50;77.65
58373;BME280;44177;43.356;27.672;2023-04-01T00:02:49;97375.50;;;7.45;77.62
58373;BME280;44177;43.356;27.672;2023-04-01T00:05:15;97376.81;;;7.35;78.53
58373;BME280;44177;43.356;27.672;2023-04-01T00:07:42;97365.69;;;7.40;78.65
58373;BME280;44177;43.356;27.672;2023-04-01T00:10:09;97370.00;;;7.41;78.77
58373;BME280;44177;43.356;27.672;2023-04-01T00:12:36;97370.09;;;7.45;78.75
58373;BME280;44177;43.356;27.672;2023-04-01T00:15:03;97364.84;;;7.52;78.86
58373;BME280;44177;43.356;27.672;2023-04-01T00:17:29;97364.16;;;7.55;78.82
58373;BME280;44177;43.356;27.672;2023-04-01T00:19:55;97355.66;;;7.56;78.67
58373;BME280;44177;43.356;27.672;2023-04-01T00:22:21;97355.88;;;7.64;78.65
58373;BME280;44177;43.356;27.672;2023-04-01T00:24:47;97361.47;;;7.71;78.46
58373;BME280;44177;43.356;27.672;2023-04-01T00:27:13;97359.91;;;7.70;78.43
58373;BME280;44177;43.356;27.672;2023-04-01T00:29:42;97351.50;;;7.75;78.15
58373;BME280;44177;43.356;27.672;2023-04-01T00:32:07;97355.38;;;7.74;78.08
58373;BME280;44177;43.356;27.672;2023-04-01T00:34:33;97352.19;;;7.72;77.85
58373;BME280;44177;43.356;27.672;2023-04-01T00:36:58;97342.91;;;7.73;77.83
58373;BME280;44177;43.356;27.672;2023-04-01T00:39:24;97332.06;;;7.73;77.89
58373;BME280;44177;43.356;27.672;2023-04-01T00:41:49;97317.09;;;7.63;77.96
58373;BME280;44177;43.356;27.672;2023-04-01T00:44:19;97334.69;;;7.85;77.53
58373;BME280;44177;43.356;27.672;2023-04-01T00:46:45;97318.50;;;7.89;77.13
58373;BME280;44177;43.356;27.672;2023-04-01T00:49:11;97326.75;;;7.93;76.70
58373;BME280;44177;43.356;27.672;2023-04-01T00:51:38;97320.69;;;7.83;76.91
58373;BME280;44177;43.356;27.672;2023-04-01T00:54:05;97320.41;;;7.88;76.69
58373;BME280;44177;43.356;27.672;2023-04-01T00:56:37;97324.72;;;7.89;76.62
58373;BME280;44177;43.356;27.672;2023-04-01T00:59:08;97320.06;;;7.90;76.30
58373;BME280;44177;43.356;27.672;2023-04-01T01:01:36;97315.59;;;7.82;75.76
58373;BME280;44177;43.356;27.672;2023-04-01T01:04:02;97314.91;;;7.69;76.13
58373;BME280;44177;43.356;27.672;2023-04-01T01:06:35;97322.59;;;7.67;76.22
58373;BME280;44177;43.356;27.672;2023-04-01T01:11:44;97320.38;;;7.56;76.01
58373;BME280;44177;43.356;27.672;2023-04-01T01:14:15;97322.81;;;7.46;76.42
58373;BME280;44177;43.356;27.672;2023-04-01T01:16:51;97314.41;;;7.35;76.72
58373;BME280;44177;43.356;27.672;2023-04-01T01:27:40;97304.06;;;6.30;79.17
58373;BME280;44177;43.356;27.672;2023-04-01T01:37:39;97306.53;;;5.98;83.82
58373;BME280;44177;43.356;27.672;2023-04-01T01:40:08;97304.63;;;6.11;84.44
58373;BME280;44177;43.356;27.672;2023-04-01T01:42:38;97305.88;;;6.14;83.85
58373;BME280;44177;43.356;27.672;2023-04-01T01:45:06;97303.94;;;6.02;83.67
58373;BME280;44177;43.356;27.672;2023-04-01T01:47:34;97317.19;;;6.04;84.41
58373;BME280;44177;43.356;27.672;2023-04-01T01:50:01;97310.69;;;5.96;84.20
58373;BME280;44177;43.356;27.672;2023-04-01T01:52:28;97308.59;;;6.02;83.99
58373;BME280;44177;43.356;27.672;2023-04-01T01:54:55;97307.53;;;5.94;83.76
58373;BME280;44177;43.356;27.672;2023-04-01T01:57:28;97297.50;;;5.94;84.63
58373;BME280;44177;43.356;27.672;2023-04-01T02:00:00;97294.34;;;5.92;84.15
58373;BME280;44177;43.356;27.672;2023-04-01T02:02:27;97291.19;;;5.90;84.12
58373;BME280;44177;43.356;27.672;2023-04-01T02:04:56;97300.00;;;5.99;85.10
58373;BME280;44177;43.356;27.672;2023-04-01T02:07:30;97285.34;;;6.00;85.98
58373;BME280;44177;43.356;27.672;2023-04-01T02:09:57;97282.41;;;6.18;88.64
58373;BME280;44177;43.356;27.672;2023-04-01T02:12:23;97272.22;;;6.40;89.01
58373;BME280;44177;43.356;27.672;2023-04-01T02:14:53;97266.97;;;6.59;89.11
58373;BME280;44177;43.356;27.672;2023-04-01T02:17:23;97269.78;;;6.75;88.87
58373;BME280;44177;43.356;27.672;2023-04-01T02:20:06;97268.69;;;6.92;88.86
58373;BME280;44177;43.356;27.672;2023-04-01T02:22:39;97264.72;;;7.02;88.26
58373;BME280;44177;43.356;27.672;2023-04-01T02:25:12;97272.44;;;7.16;87.60
58373;BME280;44177;43.356;27.672;2023-04-01T02:27:39;97260.31;;;7.26;87.20
58373;BME280;44177;43.356;27.672;2023-04-01T02:30:07;97253.31;;;7.41;86.21
58373;BME280;44177;43.356;27.672;2023-04-01T02:32:34;97253.94;;;7.50;85.77
58373;BME280;44177;43.356;27.672;2023-04-01T02:35:04;97251.59;;;7.49;85.83
58373;BME280;44177;43.356;27.672;2023-04-01T02:37:31;97253.34;;;7.57;85.43
58373;BME280;44177;43.356;27.672;2023-04-01T02:40:16;97251.75;;;7.72;84.58
58373;BME280;44177;43.356;27.672;2023-04-01T02:42:42;97243.78;;;7.79;84.44
58373;BME280;44177;43.356;27.672;2023-04-01T02:45:09;97236.06;;;7.81;84.71
58373;BME280;44177;43.356;27.672;2023-04-01T02:47:35;97233.53;;;7.88;84.82
58373;BME280;44177;43.356;27.672;2023-04-01T02:50:00;97230.28;;;7.99;84.64
58373;BME280;44177;43.356;27.672;2023-04-01T02:52:27;97227.59;;;8.18;84.07
58373;BME280;44177;43.356;27.672;2023-04-01T02:54:53;97213.59;;;8.16;83.54
58373;BME280;44177;43.356;27.672;2023-04-01T02:57:18;97203.66;;;8.24;82.83
58373;BME280;44177;43.356;27.672;2023-04-01T02:59:45;97217.22;;;8.40;82.03
58373;BME280;44177;43.356;27.672;2023-04-01T03:02:11;97217.22;;;8.40;81.75
58373;BME280;44177;43.356;27.672;2023-04-01T03:04:36;97218.06;;;8.44;81.32
58373;BME280;44177;43.356;27.672;2023-04-01T03:07:02;97208.06;;;8.48;80.92
58373;BME280;44177;43.356;27.672;2023-04-01T03:09:27;97193.91;;;8.39;80.83
58373;BME280;44177;43.356;27.672;2023-04-01T03:11:54;97197.75;;;8.38;80.57
58373;BME280;44177;43.356;27.672;2023-04-01T03:14:19;97197.31;;;8.36;80.43
58373;BME280;44177;43.356;27.672;2023-04-01T03:16:45;97194.59;;;8.36;80.21
58373;BME280;44177;43.356;27.672;2023-04-01T03:19:10;97191.44;;;8.34;79.50
58373;BME280;44177;43.356;27.672;2023-04-01T03:21:36;97184.59;;;8.40;78.60
58373;BME280;44177;43.356;27.672;2023-04-01T03:24:01;97180.50;;;8.30;77.91
58373;BME280;44177;43.356;27.672;2023-04-01T03:26:27;97186.59;;;8.24;78.10
58373;BME280;44177;43.356;27.672;2023-04-01T03:28:53;97179.50;;;8.19;77.98
58373;BME280;44177;43.356;27.672;2023-04-01T03:31:19;97175.13;;;8.14;77.78
58373;BME280;44177;43.356;27.672;2023-04-01T03:33:45;97184.13;;;8.18;77.89
58373;BME280;44177;43.356;27.672;2023-04-01T03:36:10;97189.16;;;8.16;77.58
58373;BME280;44177;43.356;27.672;2023-04-01T03:38:38;97181.00;;;8.16;77.67
58373;BME280;44177;43.356;27.672;2023-04-01T03:41:05;97180.06;;;8.09;76.67
58373;BME280;44177;43.356;27.672;2023-04-01T03:43:32;97175.88;;;7.95;76.33
58373;BME280;44177;43.356;27.672;2023-04-01T03:45:57;97186.59;;;7.88;78.38
58373;BME280;44177;43.356;27.672;2023-04-01T03:48:23;97184.03;;;7.79;79.96
58373;BME280;44177;43.356;27.672;2023-04-01T03:50:49;97179.34;;;7.60;80.51
58373;BME280;44177;43.356;27.672;2023-04-01T03:53:15;97180.56;;;7.63;81.65
58373;BME280;44177;43.356;27.672;2023-04-01T03:55:41;97178.97;;;7.62;82.05
58373;BME280;44177;43.356;27.672;2023-04-01T03:58:07;97180.91;;;7.61;82.28
58373;BME280;44177;43.356;27.672;2023-04-01T04:00:32;97186.25;;;7.57;82.41
58373;BME280;44177;43.356;27.672;2023-04-01T04:02:58;97182.84;;;7.61;82.50
58373;BME280;44177;43.356;27.672;2023-04-01T04:05:25;97180.47;;;7.59;82.65
58373;BME280;44177;43.356;27.672;2023-04-01T04:07:51;97189.94;;;7.65;82.79
58373;BME280;44177;43.356;27.672;2023-04-01T04:10:17;97160.16;;;7.69;82.63
58373;BME280;44177;43.356;27.672;2023-04-01T04:12:43;97167.28;;;7.93;82.30
58373;BME280;44177;43.356;27.672;2023-04-01T04:15:09;97154.78;;;7.88;82.21
58373;BME280;44177;43.356;27.672;2023-04-01T04:17:34;97165.09;;;7.99;81.62
58373;BME280;44177;43.356;27.672;2023-04-01T04:20:00;97176.84;;;8.22;81.45
58373;BME280;44177;43.356;27.672;2023-04-01T04:22:26;97162.00;;;8.36;80.93
58373;BME280;44177;43.356;27.672;2023-04-01T04:24:52;97164.84;;;8.43;80.56
58373;BME280;44177;43.356;27.672;2023-04-01T04:27:18;97161.09;;;8.48;80.42
58373;BME280;44177;43.356;27.672;2023-04-01T04:29:43;97167.59;;;8.63;80.29
58373;BME280;44177;43.356;27.672;2023-04-01T04:32:09;97164.41;;;8.80;79.51
58373;BME280;44177;43.356;27.672;2023-04-01T04:34:34;97162.06;;;8.98;79.20
58373;BME280;44177;43.356;27.672;2023-04-01T04:37:00;97147.56;;;9.14;79.00
58373;BME280;44177;43.356;27.672;2023-04-01T04:39:25;97150.13;;;9.30;79.42
58373;BME280;44177;43.356;27.672;2023-04-01T04:41:51;97157.81;;;9.47;78.33
58373;BME280;44177;43.356;27.672;2023-04-01T04:44:16;97152.06;;;9.53;77.96
58373;BME280;44177;43.356;27.672;2023-04-01T04:46:42;97156.47;;;9.61;78.03
58373;BME280;44177;43.356;27.672;2023-04-01T04:49:07;97159.19;;;9.61;77.75
58373;BME280;44177;43.356;27.672;2023-04-01T04:51:33;97154.28;;;9.70;77.79
58373;BME280;44177;43.356;27.672;2023-04-01T04:54:01;97158.25;;;9.76;77.18
58373;BME280;44177;43.356;27.672;2023-04-01T04:56:27;97145.78;;;9.75;77.69
58373;BME280;44177;43.356;27.672;2023-04-01T04:58:52;97137.50;;;9.68;77.57
58373;BME280;44177;43.356;27.672;2023-04-01T05:01:18;97147.19;;;9.66;78.66
58373;BME280;44177;43.356;27.672;2023-04-01T05:03:44;97148.72;;;9.63;79.17
58373;BME280;44177;43.356;27.672;2023-04-01T05:06:12;97147.09;;;9.58;79.38
58373;BME280;44177;43.356;27.672;2023-04-01T05:08:38;97135.00;;;9.56;79.89
58373;BME280;44177;43.356;27.672;2023-04-01T05:11:07;97148.19;;;9.54;80.50
58373;BME280;44177;43.356;27.672;2023-04-01T05:13:35;97145.03;;;9.52;80.07
58373;BME280;44177;43.356;27.672;2023-04-01T05:16:00;97127.97;;;9.55;79.72
58373;BME280;44177;43.356;27.672;2023-04-01T05:18:26;97142.94;;;9.68;78.88
58373;BME280;44177;43.356;27.672;2023-04-01T05:20:53;97136.78;;;9.71;79.11
58373;BME280;44177;43.356;27.672;2023-04-01T05:23:21;97114.47;;;9.62;78.54
58373;BME280;44177;43.356;27.672;2023-04-01T05:25:48;97123.28;;;9.78;77.99
58373;BME280;44177;43.356;27.672;2023-04-01T05:28:14;97124.16;;;9.86;77.61
58373;BME280;44177;43.356;27.672;2023-04-01T05:30:40;97108.28;;;9.92;77.14
58373;BME280;44177;43.356;27.672;2023-04-01T05:33:07;97112.75;;;10.07;76.04
58373;BME280;44177;43.356;27.672;2023-04-01T05:35:32;97114.16;;;10.24;76.17
58373;BME280;44177;43.356;27.672;2023-04-01T05:37:57;97116.16;;;10.31;76.19
58373;BME280;44177;43.356;27.672;2023-04-01T05:40:23;97107.69;;;10.36;75.30
58373;BME280;44177;43.356;27.672;2023-04-01T05:42:48;97113.31;;;10.51;75.32
58373;BME280;44177;43.356;27.672;2023-04-01T05:45:14;97111.53;;;10.69;74.85
58373;BME280;44177;43.356;27.672;2023-04-01T05:47:41;97109.00;;;10.84;73.69
58373;BME280;44177;43.356;27.672;2023-04-01T05:50:11;97101.38;;;11.04;73.38
58373;BME280;44177;43.356;27.672;2023-04-01T05:52:37;97103.88;;;11.24;74.21
58373;BME280;44177;43.356;27.672;2023-04-01T05:55:03;97096.22;;;11.40;72.98
58373;BME280;44177;43.356;27.672;2023-04-01T05:57:29;97100.16;;;11.50;72.05
58373;BME280;44177;43.356;27.672;2023-04-01T05:59:54;97090.84;;;11.54;72.02
58373;BME280;44177;43.356;27.672;2023-04-01T06:02:20;97100.25;;;11.61;70.71
58373;BME280;44177;43.356;27.672;2023-04-01T06:04:46;97095.06;;;11.45;70.75
58373;BME280;44177;43.356;27.672;2023-04-01T06:07:15;97100.13;;;11.43;71.29
58373;BME280;44177;43.356;27.672;2023-04-01T06:09:42;97084.84;;;11.34;72.11
58373;BME280;44177;43.356;27.672;2023-04-01T06:12:24;97106.34;;;11.36;70.96
58373;BME280;44177;43.356;27.672;2023-04-01T06:18:03;97106.22;;;11.25;69.58
58373;BME280;44177;43.356;27.672;2023-04-01T06:20:52;97100.72;;;11.21;69.82
58373;BME280;44177;43.356;27.672;2023-04-01T06:23:29;97090.94;;;11.17;69.98
58373;BME280;44177;43.356;27.672;2023-04-01T06:39:18;97075.06;;;11.30;71.09
58373;BME280;44177;43.356;27.672;2023-04-01T06:44:28;97068.09;;;11.32;72.25
58373;BME280;44177;43.356;27.672;2023-04-01T06:57:35;97067.47;;;11.64;71.47
58373;BME280;44177;43.356;27.672;2023-04-01T07:00:18;97059.41;;;11.82;69.64
58373;BME280;44177;43.356;27.672;2023-04-01T07:02:52;97056.81;;;12.08;69.20
58373;BME280;44177;43.356;27.672;2023-04-01T07:05:22;97062.00;;;12.31;69.66
58373;BME280;44177;43.356;27.672;2023-04-01T07:07:51;97064.81;;;12.60;67.48
58373;BME280;44177;43.356;27.672;2023-04-01T07:10:50;97062.47;;;12.73;65.71
58373;BME280;44177;43.356;27.672;2023-04-01T07:13:25;97060.91;;;12.72;63.59
58373;BME280;44177;43.356;27.672;2023-04-01T07:16:04;97063.63;;;12.64;64.85
58373;BME280;44177;43.356;27.672;2023-04-01T07:18:38;97072.59;;;12.58;65.39
58373;BME280;44177;43.356;27.672;2023-04-01T07:21:18;97063.94;;;12.38;64.36
58373;BME280;44177;43.356;27.672;2023-04-01T07:23:45;97067.09;;;12.40;64.86
58373;BME280;44177;43.356;27.672;2023-04-01T07:26:23;97056.53;;;12.38;63.89
58373;BME280;44177;43.356;27.672;2023-04-01T07:28:51;97049.88;;;12.36;64.75
58373;BME280;44177;43.356;27.672;2023-04-01T07:42:02;97048.81;;;13.09;64.82
58373;BME280;44177;43.356;27.672;2023-04-01T07:47:50;97049.22;;;13.43;62.81
58373;BME280;44177;43.356;27.672;2023-04-01T07:54:16;97045.16;;;14.06;63.34
58373;BME280;44177;43.356;27.672;2023-04-01T08:01:49;97042.19;;;14.49;57.27
58373;BME280;44177;43.356;27.672;2023-04-01T08:04:52;97044.97;;;14.42;57.11
58373;BME280;44177;43.356;27.672;2023-04-01T08:07:36;97022.25;;;14.42;58.65
58373;BME280;44177;43.356;27.672;2023-04-01T08:10:23;97009.78;;;14.30;59.22
58373;BME280;44177;43.356;27.672;2023-04-01T08:21:03;97008.22;;;14.29;59.05
58373;BME280;44177;43.356;27.672;2023-04-01T08:23:33;97010.69;;;14.05;59.43
58373;BME280;44177;43.356;27.672;2023-04-01T08:26:22;97013.78;;;14.11;59.76
58373;BME280;44177;43.356;27.672;2023-04-01T08:29:09;97022.78;;;14.11;59.86
58373;BME280;44177;43.356;27.672;2023-04-01T08:31:45;97014.94;;;14.13;58.42
58373;BME280;44177;43.356;27.672;2023-04-01T08:34:24;97019.13;;;14.40;61.98
58373;BME280;44177;43.356;27.672;2023-04-01T08:37:00;97017.53;;;14.42;59.14
58373;BME280;44177;43.356;27.672;2023-04-01T08:39:35;97006.16;;;14.47;61.02
58373;BME280;44177;43.356;27.672;2023-04-01T08:44:59;97007.75;;;14.41;59.27
58373;BME280;44177;43.356;27.672;2023-04-01T08:47:37;97003.16;;;14.24;60.59
58373;BME280;44177;43.356;27.672;2023-04-01T08:53:07;97013.44;;;13.98;60.59
58373;BME280;44177;43.356;27.672;2023-04-01T09:00:57;97014.63;;;13.97;61.52
58373;BME280;44177;43.356;27.672;2023-04-01T09:03:43;97011.44;;;14.05;62.46
58373;BME280;44177;43.356;27.672;2023-04-01T09:06:25;97029.41;;;14.17;61.34
58373;BME280;44177;43.356;27.672;2023-04-01T09:25:58;96990.69;;;14.75;59.52
58373;BME280;44177;43.356;27.672;2023-04-01T09:36:38;96979.00;;;14.64;60.00
58373;BME280;44177;43.356;27.672;2023-04-01T09:39:35;96986.38;;;15.20;58.93
58373;BME280;44177;43.356;27.672;2023-04-01T09:48:02;96952.84;;;15.74;55.03
58373;BME280;44177;43.356;27.672;2023-04-01T09:50:42;96949.69;;;15.75;54.87
58373;BME280;44177;43.356;27.672;2023-04-01T09:53:24;96942.88;;;15.53;55.73
58373;BME280;44177;43.356;27.672;2023-04-01T09:56:23;96930.44;;;15.41;56.26
58373;BME280;44177;43.356;27.672;2023-04-01T10:04:31;96910.38;;;15.09;57.59
58373;BME280;44177;43.356;27.672;2023-04-01T10:10:48;96931.59;;;15.05;58.04
58373;BME280;44177;43.356;27.672;2023-04-01T10:18:32;96931.16;;;15.10;58.36
58373;BME280;44177;43.356;27.672;2023-04-01T10:21:25;96940.06;;;15.22;56.63
58373;BME280;44177;43.356;27.672;2023-04-01T10:27:10;96941.50;;;15.34;57.39
58373;BME280;44177;43.356;27.672;2023-04-01T10:51:04;96864.34;;;16.65;54.35
58373;BME280;44177;43.356;27.672;2023-04-01T10:56:39;96860.88;;;16.81;52.43
58373;BME280;44177;43.356;27.672;2023-04-01T10:59:41;96859.72;;;16.58;53.22
58373;BME280;44177;43.356;27.672;2023-04-01T11:21:56;96839.88;;;16.67;53.33
58373;BME280;44177;43.356;27.672;2023-04-01T11:27:21;96834.75;;;16.45;54.23
58373;BME280;44177;43.356;27.672;2023-04-01T11:34:58;96841.44;;;16.68;53.34
58373;BME280;44177;43.356;27.672;2023-04-01T11:43:16;96789.75;;;17.56;53.04
58373;BME280;44177;43.356;27.672;2023-04-01T11:46:03;96798.81;;;17.57;51.74
58373;BME280;44177;43.356;27.672;2023-04-01T12:09:16;96814.91;;;19.49;43.15
58373;BME280;44177;43.356;27.672;2023-04-01T12:19:56;96777.41;;;22.13;38.81
58373;BME280;44177;43.356;27.672;2023-04-01T12:39:17;96785.06;;;20.09;41.26
58373;BME280;44177;43.356;27.672;2023-04-01T12:52:15;96784.44;;;17.65;48.70
58373;BME280;44177;43.356;27.672;2023-04-01T13:26:13;96739.72;;;18.24;50.79
58373;BME280;44177;43.356;27.672;2023-04-01T13:37:30;96728.81;;;18.79;49.28
58373;BME280;44177;43.356;27.672;2023-04-01T13:40:49;96714.88;;;18.70;52.34
58373;BME280;44177;43.356;27.672;2023-04-01T13:43:11;96724.06;;;18.79;49.43
58373;BME280;44177;43.356;27.672;2023-04-01T13:56:37;96703.91;;;20.47;45.57
58373;BME280;44177;43.356;27.672;2023-04-01T13:59:18;96694.09;;;20.33;46.95
58373;BME280;44177;43.356;27.672;2023-04-01T14:05:07;96696.41;;;19.86;47.77
58373;BME280;44177;43.356;27.672;2023-04-01T14:10:15;96685.28;;;18.83;49.89
58373;BME280;44177;43.356;27.672;2023-04-01T14:18:23;96681.38;;;17.92;53.23
58373;BME280;44177;43.356;27.672;2023-04-01T14:21:45;96689.47;;;17.83;55.69
58373;BME280;44177;43.356;27.672;2023-04-01T14:24:27;96692.59;;;17.85;56.51
58373;BME280;44177;43.356;27.672;2023-04-01T14:38:23;96685.22;;;16.92;58.96
58373;BME280;44177;43.356;27.672;2023-04-01T14:49:00;96660.53;;;16.68;59.79
58373;BME280;44177;43.356;27.672;2023-04-01T14:51:39;96655.03;;;16.68;58.87
58373;BME280;44177;43.356;27.672;2023-04-01T14:54:30;96654.38;;;16.81;59.04
58373;BME280;44177;43.356;27.672;2023-04-01T14:57:22;96651.09;;;16.86;59.09
58373;BME280;44177;43.356;27.672;2023-04-01T15:05:52;96630.56;;;16.70;58.98
58373;BME280;44177;43.356;27.672;2023-04-01T15:14:07;96638.91;;;16.47;60.94
58373;BME280;44177;43.356;27.672;2023-04-01T15:28:01;96588.53;;;15.89;62.05
58373;BME280;44177;43.356;27.672;2023-04-01T15:36:33;96592.72;;;15.50;64.22
58373;BME280;44177;43.356;27.672;2023-04-01T15:46:57;96583.22;;;15.55;64.65
58373;BME280;44177;43.356;27.672;2023-04-01T16:10:48;96618.19;;;14.72;68.10
58373;BME280;44177;43.356;27.672;2023-04-01T16:15:57;96616.81;;;14.57;68.82
58373;BME280;44177;43.356;27.672;2023-04-01T16:24:30;96619.91;;;14.28;69.29
58373;BME280;44177;43.356;27.672;2023-04-01T16:27:10;96619.19;;;14.24;68.95
58373;BME280;44177;43.356;27.672;2023-04-01T16:29:46;96617.72;;;14.15;69.01
58373;BME280;44177;43.356;27.672;2023-04-01T16:32:41;96616.56;;;14.09;69.02
58373;BME280;44177;43.356;27.672;2023-04-01T16:35:54;96610.38;;;14.05;69.50
58373;BME280;44177;43.356;27.672;2023-04-01T16:46:33;96619.31;;;13.71;70.21
58373;BME280;44177;43.356;27.672;2023-04-01T16:49:04;96613.94;;;13.60;70.62
58373;BME280;44177;43.356;27.672;2023-04-01T16:57:15;96616.94;;;13.24;72.44
58373;BME280;44177;43.356;27.672;2023-04-01T17:00:00;96617.38;;;13.15;73.11
58373;BME280;44177;43.356;27.672;2023-04-01T17:02:37;96606.47;;;13.08;73.99
58373;BME280;44177;43.356;27.672;2023-04-01T17:05:05;96615.53;;;13.05;73.87
58373;BME280;44177;43.356;27.672;2023-04-01T17:13:46;96621.84;;;12.94;75.20
58373;BME280;44177;43.356;27.672;2023-04-01T17:16:52;96594.94;;;12.78;75.35
58373;BME280;44177;43.356;27.672;2023-04-01T17:22:27;96607.34;;;12.98;75.55
58373;BME280;44177;43.356;27.672;2023-04-01T17:27:51;96606.56;;;12.97;76.52
58373;BME280;44177;43.356;27.672;2023-04-01T17:31:26;96601.53;;;12.92;77.85
58373;BME280;44177;43.356;27.672;2023-04-01T17:44:55;96593.09;;;12.64;79.96
58373;BME280;44177;43.356;27.672;2023-04-01T17:50:44;96635.72;;;12.58;80.36
58373;BME280;44177;43.356;27.672;2023-04-01T17:59:39;96676.06;;;12.29;79.33
58373;BME280;44177;43.356;27.672;2023-04-01T18:18:54;96664.78;;;11.58;87.22
58373;BME280;44177;43.356;27.672;2023-04-01T18:24:18;96657.00;;;11.49;86.28
58373;BME280;44177;43.356;27.672;2023-04-01T18:29:50;96638.28;;;11.51;87.12
58373;BME280;44177;43.356;27.672;2023-04-01T18:35:14;96658.56;;;11.54;87.19
58373;BME280;44177;43.356;27.672;2023-04-01T18:40:48;96677.28;;;11.23;86.31
58373;BME280;44177;43.356;27.672;2023-04-01T18:43:47;96687.38;;;11.19;87.21
58373;BME280;44177;43.356;27.672;2023-04-01T18:46:41;96693.66;;;11.23;87.58
58373;BME280;44177;43.356;27.672;2023-04-01T18:51:46;96681.13;;;10.97;88.64
58373;BME280;44177;43.356;27.672;2023-04-01T18:57:24;96668.59;;;10.81;89.82
58373;BME280;44177;43.356;27.672;2023-04-01T18:59:55;96685.72;;;10.74;90.76
58373;BME280;44177;43.356;27.672;2023-04-01T19:02:33;96691.94;;;10.68;91.25
58373;BME280;44177;43.356;27.672;2023-04-01T19:05:11;96683.28;;;10.51;92.78
58373;BME280;44177;43.356;27.672;2023-04-01T19:07:49;96694.50;;;10.35;93.82
58373;BME280;44177;43.356;27.672;2023-04-01T19:16:00;96732.75;;;9.94;97.29
58373;BME280;44177;43.356;27.672;2023-04-01T19:18:40;96737.34;;;9.83;97.33
58373;BME280;44177;43.356;27.672;2023-04-01T19:21:53;96740.44;;;9.81;96.94
58373;BME280;44177;43.356;27.672;2023-04-01T19:24:22;96747.41;;;9.75;96.84
58373;BME280;44177;43.356;27.672;2023-04-01T19:32:54;96768.88;;;9.84;95.84
58373;BME280;44177;43.356;27.672;2023-04-01T19:36:04;96765.75;;;9.82;95.64
58373;BME280;44177;43.356;27.672;2023-04-01T19:44:35;96761.41;;;9.73;96.74
58373;BME280;44177;43.356;27.672;2023-04-01T19:47:35;96764.84;;;9.67;97.45
58373;BME280;44177;43.356;27.672;2023-04-01T19:52:56;96786.06;;;9.50;98.17
58373;BME280;44177;43.356;27.672;2023-04-01T19:55:38;96758.00;;;9.42;99.60
58373;BME280;44177;43.356;27.672;2023-04-01T20:00:58;96793.78;;;9.44;100.00
58373;BME280;44177;43.356;27.672;2023-04-01T20:03:39;96796.84;;;9.39;100.00
58373;BME280;44177;43.356;27.672;2023-04-01T20:08:50;96789.63;;;9.54;100.00
58373;BME280;44177;43.356;27.672;2023-04-01T20:14:29;96762.69;;;9.45;100.00
58373;BME280;44177;43.356;27.672;2023-04-01T20:20:23;96761.16;;;9.48;100.00
58373;BME280;44177;43.356;27.672;2023-04-01T20:28:14;96768.19;;;9.53;100.00
58373;BME280;44177;43.356;27.672;2023-04-01T20:31:21;96765.84;;;9.51;100.00
58373;BME280;44177;43.356;27.672;2023-04-01T20:34:06;96769.72;;;9.50;100.00
58373;BME280;44177;43.356;27.672;2023-04-01T20:37:15;96788.44;;;9.55;99.88
58373;BME280;44177;43.356;27.672;2023-04-01T20:48:39;96767.59;;;9.70;97.18
58373;BME280;44177;43.356;27.672;2023-04-01T20:51:28;96777.66;;;9.62;97.29
58373;BME280;44177;43.356;27.672;2023-04-01T20:54:03;96786.63;;;9.67;97.67
58373;BME280;44177;43.356;27.672;2023-04-01T21:05:42;96785.97;;;9.80;96.01
58373;BME280;44177;43.356;27.672;2023-04-01T21:08:43;96786.41;;;9.86;95.60
58373;BME280;44177;43.356;27.672;2023-04-01T21:11:18;96797.66;;;9.85;95.28
58373;BME280;44177;43.356;27.672;2023-04-01T21:22:23;96857.06;;;9.72;96.43
58373;BME280;44177;43.356;27.672;2023-04-01T21:24:59;96863.97;;;9.62;97.03
58373;BME280;44177;43.356;27.672;2023-04-01T21:36:20;96854.19;;;9.57;99.27
58373;BME280;44177;43.356;27.672;2023-04-01T21:39:05;96847.63;;;9.62;99.06
58373;BME280;44177;43.356;27.672;2023-04-01T21:41:30;96846.41;;;9.56;98.85
58373;BME280;44177;43.356;27.672;2023-04-01T22:00:33;96865.06;;;9.91;93.28
58373;BME280;44177;43.356;27.672;2023-04-01T22:10:50;96882.16;;;9.92;91.98
58373;BME280;44177;43.356;27.672;2023-04-01T22:13:27;96875.50;;;9.86;92.45
58373;BME280;44177;43.356;27.672;2023-04-01T22:32:04;96909.31;;;9.81;92.27
58373;BME280;44177;43.356;27.672;2023-04-01T22:37:25;96907.56;;;9.66;92.77
58373;BME280;44177;43.356;27.672;2023-04-01T22:42:46;96922.81;;;9.40;94.61
58373;BME280;44177;43.356;27.672;2023-04-01T22:47:57;96909.31;;;9.16;96.54
58373;BME280;44177;43.356;27.672;2023-04-01T22:55:34;96909.97;;;8.79;94.51
58373;BME280;44177;43.356;27.672;2023-04-01T22:58:07;96897.00;;;8.69;94.28
58373;BME280;44177;43.356;27.672;2023-04-01T23:00:37;96920.38;;;8.74;94.99
58373;BME280;44177;43.356;27.672;2023-04-01T23:03:26;96913.41;;;8.76;94.45
58373;BME280;44177;43.356;27.672;2023-04-01T23:05:58;96913.38;;;8.73;93.85
58373;BME280;44177;43.356;27.672;2023-04-01T23:10:58;96909.28;;;8.59;92.12
58373;BME280;44177;43.356;27.672;2023-04-01T23:13:39;96908.91;;;8.61;91.33
58373;BME280;44177;43.356;27.672;2023-04-01T23:16:08;96888.06;;;8.45;90.78
58373;BME280;44177;43.356;27.672;2023-04-01T23:19:07;96894.38;;;8.49;90.51
58373;BME280;44177;43.356;27.672;2023-04-01T23:21:45;96898.03;;;8.37;90.68
58373;BME280;44177;43.356;27.672;2023-04-01T23:26:53;96895.44;;;8.21;89.75
58373;BME280;44177;43.356;27.672;2023-04-01T23:29:21;96910.91;;;8.17;88.65
58373;BME280;44177;43.356;27.672;2023-04-01T23:31:54;96899.97;;;8.14;88.03
58373;BME280;44177;43.356;27.672;2023-04-01T23:34:25;96905.28;;;8.06;88.10
58373;BME280;44177;43.356;27.672;2023-04-01T23:37:12;96900.41;;;7.93;88.41
58373;BME280;44177;43.356;27.672;2023-04-01T23:39:43;96896.19;;;7.75;89.28